sensor_id;sensor_type;location;lat;lon;timestamp;P1;durP1;ratioP1;P2;durP2;ratioP2
69906;SDS011;57190;47.918;8.112;2023-05-15T00:02:10;2.25;;;1.80;;
69906;SDS011;57190;47.918;8.112;2023-05-15T00:04:36;3.08;;;1.65;;
69906;SDS011;57190;47.918;8.112;2023-05-15T00:07:01;1.92;;;1.83;;
69906;SDS011;57190;47.918;8.112;2023-05-15T00:09:27;1.80;;;1.70;;
69906;SDS011;57190;47.918;8.112;2023-05-15T00:11:52;1.48;;;1.38;;
69906;SDS011;57190;47.918;8.112;2023-05-15T00:14:18;1.92;;;1.83;;
69906;SDS011;57190;47.918;8.112;2023-05-15T00:16:43;1.90;;;1.80;;
69906;SDS011;57190;47.918;8.112;2023-05-15T00:19:09;1.83;;;1.73;;
69906;SDS011;57190;47.918;8.112;2023-05-15T00:21:35;2.05;;;1.67;;
69906;SDS011;57190;47.918;8.112;2023-05-15T00:24:00;1.63;;;1.38;;
69906;SDS011;57190;47.918;8.112;2023-05-15T00:26:26;1.35;;;1.25;;
69906;SDS011;57190;47.918;8.112;2023-05-15T00:28:52;2.30;;;1.48;;
69906;SDS011;57190;47.918;8.112;2023-05-15T00:31:17;1.60;;;1.50;;
69906;SDS011;57190;47.918;8.112;2023-05-15T00:33:43;1.65;;;1.45;;
69906;SDS011;57190;47.918;8.112;2023-05-15T00:36:08;1.83;;;1.73;;
69906;SDS011;57190;47.918;8.112;2023-05-15T00:38:34;1.80;;;1.70;;
69906;SDS011;57190;47.918;8.112;2023-05-15T00:41:00;1.50;;;1.40;;
69906;SDS011;57190;47.918;8.112;2023-05-15T00:43:26;1.25;;;1.25;;
69906;SDS011;57190;47.918;8.112;2023-05-15T00:45:52;1.60;;;1.50;;
69906;SDS011;57190;47.918;8.112;2023-05-15T00:48:19;2.00;;;1.40;;
69906;SDS011;57190;47.918;8.112;2023-05-15T00:50:49;1.20;;;1.20;;
69906;SDS011;57190;47.918;8.112;2023-05-15T00:53:16;1.67;;;1.58;;
69906;SDS011;57190;47.918;8.112;2023-05-15T00:55:44;1.30;;;1.30;;
69906;SDS011;57190;47.918;8.112;2023-05-15T00:58:10;1.38;;;1.35;;
69906;SDS011;57190;47.918;8.112;2023-05-15T01:00:38;1.53;;;1.43;;
69906;SDS011;57190;47.918;8.112;2023-05-15T01:03:04;1.10;;;1.10;;
69906;SDS011;57190;47.918;8.112;2023-05-15T01:05:30;2.22;;;1.35;;
69906;SDS011;57190;47.918;8.112;2023-05-15T01:10:56;2.57;;;1.60;;
69906;SDS011;57190;47.918;8.112;2023-05-15T01:13:23;1.70;;;1.60;;
69906;SDS011;57190;47.918;8.112;2023-05-15T01:15:49;2.42;;;1.88;;
69906;SDS011;57190;47.918;8.112;2023-05-15T01:18:14;1.50;;;1.40;;
69906;SDS011;57190;47.918;8.112;2023-05-15T01:23:23;4.00;;;1.40;;
69906;SDS011;57190;47.918;8.112;2023-05-15T01:29:19;1.52;;;1.42;;
69906;SDS011;57190;47.918;8.112;2023-05-15T01:31:56;1.80;;;1.53;;
69906;SDS011;57190;47.918;8.112;2023-05-15T01:34:30;2.05;;;1.48;;
69906;SDS011;57190;47.918;8.112;2023-05-15T01:37:02;1.52;;;1.42;;
69906;SDS011;57190;47.918;8.112;2023-05-15T01:39:28;1.55;;;1.38;;
69906;SDS011;57190;47.918;8.112;2023-05-15T01:44:37;1.30;;;1.30;;
69906;SDS011;57190;47.918;8.112;2023-05-15T01:47:14;1.23;;;1.23;;
69906;SDS011;57190;47.918;8.112;2023-05-15T01:49:44;1.00;;;1.00;;
69906;SDS011;57190;47.918;8.112;2023-05-15T01:52:19;1.40;;;1.30;;
69906;SDS011;57190;47.918;8.112;2023-05-15T01:54:52;1.60;;;1.40;;
69906;SDS011;57190;47.918;8.112;2023-05-15T01:57:19;1.30;;;1.20;;
69906;SDS011;57190;47.918;8.112;2023-05-15T01:59:47;1.60;;;1.40;;
69906;SDS011;57190;47.918;8.112;2023-05-15T02:02:15;1.47;;;1.37;;
69906;SDS011;57190;47.918;8.112;2023-05-15T02:04:43;2.17;;;1.60;;
69906;SDS011;57190;47.918;8.112;2023-05-15T02:07:09;1.50;;;1.40;;
69906;SDS011;57190;47.918;8.112;2023-05-15T02:09:36;1.60;;;1.50;;
69906;SDS011;57190;47.918;8.112;2023-05-15T02:12:03;1.30;;;1.20;;
69906;SDS011;57190;47.918;8.112;2023-05-15T02:14:34;2.47;;;1.67;;
69906;SDS011;57190;47.918;8.112;2023-05-15T02:17:02;1.90;;;1.50;;
69906;SDS011;57190;47.918;8.112;2023-05-15T02:19:28;1.77;;;1.67;;
69906;SDS011;57190;47.918;8.112;2023-05-15T02:21:54;1.97;;;1.80;;
69906;SDS011;57190;47.918;8.112;2023-05-15T02:24:19;1.60;;;1.50;;
69906;SDS011;57190;47.918;8.112;2023-05-15T02:26:55;1.70;;;1.60;;
69906;SDS011;57190;47.918;8.112;2023-05-15T02:32:00;1.67;;;1.57;;
69906;SDS011;57190;47.918;8.112;2023-05-15T02:37:50;1.77;;;1.50;;
69906;SDS011;57190;47.918;8.112;2023-05-15T02:40:17;1.73;;;1.63;;
69906;SDS011;57190;47.918;8.112;2023-05-15T02:42:45;1.70;;;1.60;;
69906;SDS011;57190;47.918;8.112;2023-05-15T02:45:12;1.80;;;1.70;;
69906;SDS011;57190;47.918;8.112;2023-05-15T02:47:38;1.50;;;1.40;;
69906;SDS011;57190;47.918;8.112;2023-05-15T02:50:06;1.80;;;1.70;;
69906;SDS011;57190;47.918;8.112;2023-05-15T02:52:35;1.83;;;1.73;;
69906;SDS011;57190;47.918;8.112;2023-05-15T02:55:00;2.03;;;1.83;;
69906;SDS011;57190;47.918;8.112;2023-05-15T02:57:26;1.90;;;1.80;;
69906;SDS011;57190;47.918;8.112;2023-05-15T02:59:52;1.80;;;1.70;;
69906;SDS011;57190;47.918;8.112;2023-05-15T03:02:19;1.60;;;1.50;;
69906;SDS011;57190;47.918;8.112;2023-05-15T03:04:44;2.00;;;1.90;;
69906;SDS011;57190;47.918;8.112;2023-05-15T03:07:10;1.23;;;1.23;;
69906;SDS011;57190;47.918;8.112;2023-05-15T03:09:35;1.43;;;1.10;;
69906;SDS011;57190;47.918;8.112;2023-05-15T03:12:01;1.50;;;1.40;;
69906;SDS011;57190;47.918;8.112;2023-05-15T03:14:26;1.40;;;1.30;;
69906;SDS011;57190;47.918;8.112;2023-05-15T03:16:52;1.30;;;1.30;;
69906;SDS011;57190;47.918;8.112;2023-05-15T03:19:17;1.33;;;1.20;;
69906;SDS011;57190;47.918;8.112;2023-05-15T03:21:43;1.40;;;1.30;;
69906;SDS011;57190;47.918;8.112;2023-05-15T03:24:08;1.50;;;1.40;;
69906;SDS011;57190;47.918;8.112;2023-05-15T03:26:34;1.30;;;1.30;;
69906;SDS011;57190;47.918;8.112;2023-05-15T03:29:00;1.30;;;1.20;;
69906;SDS011;57190;47.918;8.112;2023-05-15T03:31:26;1.67;;;1.57;;
69906;SDS011;57190;47.918;8.112;2023-05-15T03:33:51;1.77;;;1.67;;
69906;SDS011;57190;47.918;8.112;2023-05-15T03:36:17;1.97;;;1.43;;
69906;SDS011;57190;47.918;8.112;2023-05-15T03:38:42;1.20;;;1.20;;
69906;SDS011;57190;47.918;8.112;2023-05-15T03:41:11;1.53;;;1.43;;
69906;SDS011;57190;47.918;8.112;2023-05-15T03:43:36;1.60;;;1.50;;
69906;SDS011;57190;47.918;8.112;2023-05-15T03:46:02;4.03;;;1.30;;
69906;SDS011;57190;47.918;8.112;2023-05-15T03:48:27;1.00;;;1.00;;
69906;SDS011;57190;47.918;8.112;2023-05-15T03:50:53;1.43;;;1.13;;
69906;SDS011;57190;47.918;8.112;2023-05-15T03:53:18;1.37;;;1.27;;
69906;SDS011;57190;47.918;8.112;2023-05-15T03:55:44;1.70;;;1.60;;
69906;SDS011;57190;47.918;8.112;2023-05-15T03:58:09;2.00;;;1.50;;
69906;SDS011;57190;47.918;8.112;2023-05-15T04:00:35;1.37;;;1.27;;
69906;SDS011;57190;47.918;8.112;2023-05-15T04:03:00;1.30;;;1.30;;
69906;SDS011;57190;47.918;8.112;2023-05-15T04:05:26;1.30;;;1.23;;
69906;SDS011;57190;47.918;8.112;2023-05-15T04:07:51;1.40;;;1.30;;
69906;SDS011;57190;47.918;8.112;2023-05-15T04:10:17;1.63;;;1.30;;
69906;SDS011;57190;47.918;8.112;2023-05-15T04:12:43;1.67;;;1.53;;
69906;SDS011;57190;47.918;8.112;2023-05-15T04:15:12;1.57;;;1.47;;
69906;SDS011;57190;47.918;8.112;2023-05-15T04:17:41;2.83;;;1.57;;
69906;SDS011;57190;47.918;8.112;2023-05-15T04:20:08;2.37;;;1.50;;
69906;SDS011;57190;47.918;8.112;2023-05-15T04:22:35;1.80;;;1.70;;
69906;SDS011;57190;47.918;8.112;2023-05-15T04:25:01;2.10;;;2.00;;
69906;SDS011;57190;47.918;8.112;2023-05-15T04:27:26;2.23;;;1.60;;
69906;SDS011;57190;47.918;8.112;2023-05-15T04:29:52;2.03;;;1.30;;
69906;SDS011;57190;47.918;8.112;2023-05-15T04:32:18;1.43;;;1.33;;
69906;SDS011;57190;47.918;8.112;2023-05-15T04:34:43;1.53;;;1.43;;
69906;SDS011;57190;47.918;8.112;2023-05-15T04:37:09;1.73;;;1.57;;
69906;SDS011;57190;47.918;8.112;2023-05-15T04:39:36;1.50;;;1.40;;
69906;SDS011;57190;47.918;8.112;2023-05-15T04:42:01;1.70;;;1.60;;
69906;SDS011;57190;47.918;8.112;2023-05-15T04:44:27;2.07;;;1.97;;
69906;SDS011;57190;47.918;8.112;2023-05-15T04:46:53;1.83;;;1.73;;
69906;SDS011;57190;47.918;8.112;2023-05-15T04:49:18;2.13;;;2.03;;
69906;SDS011;57190;47.918;8.112;2023-05-15T04:51:44;1.60;;;1.50;;
69906;SDS011;57190;47.918;8.112;2023-05-15T04:54:09;1.70;;;1.60;;
69906;SDS011;57190;47.918;8.112;2023-05-15T04:56:35;3.90;;;2.03;;
69906;SDS011;57190;47.918;8.112;2023-05-15T04:59:01;2.47;;;2.37;;
69906;SDS011;57190;47.918;8.112;2023-05-15T05:01:27;2.00;;;1.90;;
69906;SDS011;57190;47.918;8.112;2023-05-15T05:10:40;2.70;;;2.50;;
69906;SDS011;57190;47.918;8.112;2023-05-15T05:13:05;3.03;;;2.83;;
69906;SDS011;57190;47.918;8.112;2023-05-15T05:15:31;3.00;;;2.70;;
69906;SDS011;57190;47.918;8.112;2023-05-15T05:17:56;2.77;;;2.57;;
69906;SDS011;57190;47.918;8.112;2023-05-15T05:20:22;2.60;;;2.40;;
69906;SDS011;57190;47.918;8.112;2023-05-15T05:22:48;2.50;;;2.30;;
69906;SDS011;57190;47.918;8.112;2023-05-15T05:25:13;2.80;;;2.60;;
69906;SDS011;57190;47.918;8.112;2023-05-15T05:27:39;2.00;;;1.90;;
69906;SDS011;57190;47.918;8.112;2023-05-15T05:30:04;2.40;;;2.30;;
69906;SDS011;57190;47.918;8.112;2023-05-15T05:32:31;2.47;;;2.22;;
69906;SDS011;57190;47.918;8.112;2023-05-15T05:34:56;2.00;;;1.90;;
69906;SDS011;57190;47.918;8.112;2023-05-15T05:37:22;2.17;;;1.98;;
69906;SDS011;57190;47.918;8.112;2023-05-15T05:39:47;2.42;;;2.22;;
69906;SDS011;57190;47.918;8.112;2023-05-15T05:42:13;2.88;;;2.67;;
69906;SDS011;57190;47.918;8.112;2023-05-15T05:44:38;2.40;;;2.20;;
69906;SDS011;57190;47.918;8.112;2023-05-15T05:47:04;2.38;;;2.28;;
69906;SDS011;57190;47.918;8.112;2023-05-15T05:49:30;2.30;;;2.20;;
69906;SDS011;57190;47.918;8.112;2023-05-15T05:51:55;2.53;;;2.42;;
69906;SDS011;57190;47.918;8.112;2023-05-15T05:54:21;2.40;;;2.30;;
69906;SDS011;57190;47.918;8.112;2023-05-15T05:56:46;2.38;;;2.28;;
69906;SDS011;57190;47.918;8.112;2023-05-15T05:59:12;2.22;;;2.13;;
69906;SDS011;57190;47.918;8.112;2023-05-15T06:11:38;2.45;;;2.30;;
69906;SDS011;57190;47.918;8.112;2023-05-15T06:14:04;2.20;;;2.10;;
69906;SDS011;57190;47.918;8.112;2023-05-15T06:16:32;2.65;;;2.50;;
69906;SDS011;57190;47.918;8.112;2023-05-15T06:18:57;3.25;;;2.58;;
69906;SDS011;57190;47.918;8.112;2023-05-15T06:21:23;2.83;;;2.63;;
69906;SDS011;57190;47.918;8.112;2023-05-15T06:23:48;2.80;;;2.53;;
69906;SDS011;57190;47.918;8.112;2023-05-15T06:26:14;2.83;;;2.63;;
69906;SDS011;57190;47.918;8.112;2023-05-15T06:28:40;3.13;;;2.83;;
69906;SDS011;57190;47.918;8.112;2023-05-15T06:31:05;3.13;;;2.92;;
69906;SDS011;57190;47.918;8.112;2023-05-15T06:33:31;3.20;;;2.90;;
69906;SDS011;57190;47.918;8.112;2023-05-15T06:35:56;2.60;;;2.50;;
69906;SDS011;57190;47.918;8.112;2023-05-15T06:38:22;3.83;;;2.65;;
69906;SDS011;57190;47.918;8.112;2023-05-15T06:40:47;3.17;;;2.97;;
69906;SDS011;57190;47.918;8.112;2023-05-15T06:43:13;2.53;;;2.42;;
69906;SDS011;57190;47.918;8.112;2023-05-15T06:45:38;2.90;;;2.70;;
69906;SDS011;57190;47.918;8.112;2023-05-15T06:48:04;3.05;;;2.85;;
69906;SDS011;57190;47.918;8.112;2023-05-15T06:50:29;2.78;;;2.40;;
69906;SDS011;57190;47.918;8.112;2023-05-15T06:52:55;2.70;;;2.50;;
69906;SDS011;57190;47.918;8.112;2023-05-15T06:55:21;2.60;;;2.50;;
69906;SDS011;57190;47.918;8.112;2023-05-15T06:57:46;2.50;;;2.40;;
69906;SDS011;57190;47.918;8.112;2023-05-15T07:00:12;2.30;;;2.20;;
69906;SDS011;57190;47.918;8.112;2023-05-15T07:02:38;2.55;;;2.40;;
69906;SDS011;57190;47.918;8.112;2023-05-15T07:05:03;3.03;;;2.83;;
69906;SDS011;57190;47.918;8.112;2023-05-15T07:07:29;2.50;;;2.40;;
69906;SDS011;57190;47.918;8.112;2023-05-15T07:09:55;2.45;;;2.35;;
69906;SDS011;57190;47.918;8.112;2023-05-15T07:12:20;3.13;;;2.92;;
69906;SDS011;57190;47.918;8.112;2023-05-15T07:14:45;3.20;;;3.00;;
69906;SDS011;57190;47.918;8.112;2023-05-15T07:17:11;2.78;;;2.58;;
69906;SDS011;57190;47.918;8.112;2023-05-15T07:19:37;3.28;;;3.08;;
69906;SDS011;57190;47.918;8.112;2023-05-15T07:22:02;3.20;;;3.00;;
69906;SDS011;57190;47.918;8.112;2023-05-15T07:24:28;3.90;;;3.60;;
69906;SDS011;57190;47.918;8.112;2023-05-15T07:26:53;3.80;;;3.60;;
69906;SDS011;57190;47.918;8.112;2023-05-15T07:29:21;4.53;;;3.25;;
69906;SDS011;57190;47.918;8.112;2023-05-15T07:31:46;3.75;;;3.47;;
69906;SDS011;57190;47.918;8.112;2023-05-15T07:34:12;3.67;;;3.05;;
69906;SDS011;57190;47.918;8.112;2023-05-15T07:36:37;2.95;;;2.78;;
69906;SDS011;57190;47.918;8.112;2023-05-15T07:39:03;3.22;;;3.03;;
69906;SDS011;57190;47.918;8.112;2023-05-15T07:41:29;3.15;;;2.85;;
69906;SDS011;57190;47.918;8.112;2023-05-15T07:43:57;3.22;;;3.00;;
69906;SDS011;57190;47.918;8.112;2023-05-15T07:46:22;3.63;;;3.17;;
69906;SDS011;57190;47.918;8.112;2023-05-15T07:48:48;3.17;;;2.97;;
69906;SDS011;57190;47.918;8.112;2023-05-15T07:51:13;2.90;;;2.72;;
69906;SDS011;57190;47.918;8.112;2023-05-15T07:53:39;2.50;;;2.40;;
69906;SDS011;57190;47.918;8.112;2023-05-15T07:56:05;2.95;;;2.75;;
69906;SDS011;57190;47.918;8.112;2023-05-15T07:58:31;3.00;;;2.80;;
69906;SDS011;57190;47.918;8.112;2023-05-15T08:00:59;3.42;;;3.22;;
69906;SDS011;57190;47.918;8.112;2023-05-15T08:03:25;3.20;;;3.00;;
69906;SDS011;57190;47.918;8.112;2023-05-15T08:05:50;3.47;;;3.17;;
69906;SDS011;57190;47.918;8.112;2023-05-15T08:08:16;2.88;;;2.67;;
69906;SDS011;57190;47.918;8.112;2023-05-15T08:10:41;2.92;;;2.72;;
69906;SDS011;57190;47.918;8.112;2023-05-15T08:13:07;3.50;;;3.20;;
69906;SDS011;57190;47.918;8.112;2023-05-15T08:15:32;2.95;;;2.75;;
69906;SDS011;57190;47.918;8.112;2023-05-15T08:17:58;3.28;;;3.08;;
69906;SDS011;57190;47.918;8.112;2023-05-15T08:20:24;3.50;;;3.25;;
69906;SDS011;57190;47.918;8.112;2023-05-15T08:22:51;3.35;;;3.05;;
69906;SDS011;57190;47.918;8.112;2023-05-15T08:25:17;4.35;;;2.80;;
69906;SDS011;57190;47.918;8.112;2023-05-15T08:27:42;3.15;;;2.95;;
69906;SDS011;57190;47.918;8.112;2023-05-15T08:30:08;3.05;;;2.85;;
69906;SDS011;57190;47.918;8.112;2023-05-15T08:32:34;2.97;;;2.78;;
69906;SDS011;57190;47.918;8.112;2023-05-15T08:34:59;2.95;;;2.75;;
69906;SDS011;57190;47.918;8.112;2023-05-15T08:37:25;3.00;;;2.80;;
69906;SDS011;57190;47.918;8.112;2023-05-15T08:39:51;3.00;;;2.80;;
69906;SDS011;57190;47.918;8.112;2023-05-15T08:42:32;2.50;;;2.40;;
69906;SDS011;57190;47.918;8.112;2023-05-15T08:45:07;3.22;;;3.03;;
69906;SDS011;57190;47.918;8.112;2023-05-15T08:47:34;2.67;;;2.47;;
69906;SDS011;57190;47.918;8.112;2023-05-15T08:52:33;2.40;;;2.30;;
69906;SDS011;57190;47.918;8.112;2023-05-15T08:54:59;2.20;;;2.10;;
69906;SDS011;57190;47.918;8.112;2023-05-15T08:57:25;2.45;;;2.35;;
69906;SDS011;57190;47.918;8.112;2023-05-15T08:59:56;2.60;;;2.40;;
69906;SDS011;57190;47.918;8.112;2023-05-15T09:02:22;2.00;;;1.90;;
69906;SDS011;57190;47.918;8.112;2023-05-15T09:04:50;2.95;;;2.75;;
69906;SDS011;57190;47.918;8.112;2023-05-15T09:07:15;2.42;;;2.28;;
69906;SDS011;57190;47.918;8.112;2023-05-15T09:09:41;2.60;;;2.40;;
69906;SDS011;57190;47.918;8.112;2023-05-15T09:12:09;2.70;;;2.47;;
69906;SDS011;57190;47.918;8.112;2023-05-15T09:14:37;2.17;;;2.05;;
69906;SDS011;57190;47.918;8.112;2023-05-15T09:17:02;2.08;;;1.98;;
69906;SDS011;57190;47.918;8.112;2023-05-15T09:19:28;1.80;;;1.70;;
69906;SDS011;57190;47.918;8.112;2023-05-15T09:21:54;2.00;;;1.90;;
69906;SDS011;57190;47.918;8.112;2023-05-15T09:24:23;2.10;;;2.00;;
69906;SDS011;57190;47.918;8.112;2023-05-15T09:27:02;1.92;;;1.83;;
69906;SDS011;57190;47.918;8.112;2023-05-15T09:29:32;2.17;;;2.05;;
69906;SDS011;57190;47.918;8.112;2023-05-15T09:34:32;2.80;;;1.95;;
69906;SDS011;57190;47.918;8.112;2023-05-15T09:37:03;1.77;;;1.58;;
69906;SDS011;57190;47.918;8.112;2023-05-15T09:39:30;2.60;;;2.17;;
69906;SDS011;57190;47.918;8.112;2023-05-15T09:42:06;1.80;;;1.70;;
69906;SDS011;57190;47.918;8.112;2023-05-15T09:44:32;2.25;;;2.10;;
69906;SDS011;57190;47.918;8.112;2023-05-15T09:46:59;1.80;;;1.70;;
69906;SDS011;57190;47.918;8.112;2023-05-15T09:49:26;1.85;;;1.75;;
69906;SDS011;57190;47.918;8.112;2023-05-15T09:51:53;1.92;;;1.83;;
69906;SDS011;57190;47.918;8.112;2023-05-15T09:54:22;1.80;;;1.70;;
69906;SDS011;57190;47.918;8.112;2023-05-15T09:56:48;1.85;;;1.75;;
69906;SDS011;57190;47.918;8.112;2023-05-15T09:59:17;2.13;;;1.92;;
69906;SDS011;57190;47.918;8.112;2023-05-15T10:01:46;1.95;;;1.75;;
69906;SDS011;57190;47.918;8.112;2023-05-15T10:04:13;2.13;;;2.03;;
69906;SDS011;57190;47.918;8.112;2023-05-15T10:06:40;2.42;;;2.33;;
69906;SDS011;57190;47.918;8.112;2023-05-15T10:09:06;2.25;;;2.15;;
69906;SDS011;57190;47.918;8.112;2023-05-15T10:11:39;2.28;;;2.00;;
69906;SDS011;57190;47.918;8.112;2023-05-15T10:14:08;2.38;;;2.17;;
69906;SDS011;57190;47.918;8.112;2023-05-15T10:16:36;2.65;;;2.08;;
69906;SDS011;57190;47.918;8.112;2023-05-15T10:19:04;1.83;;;1.73;;
69906;SDS011;57190;47.918;8.112;2023-05-15T10:21:36;2.08;;;1.98;;
69906;SDS011;57190;47.918;8.112;2023-05-15T10:24:04;1.85;;;1.75;;
69906;SDS011;57190;47.918;8.112;2023-05-15T10:29:04;2.33;;;2.22;;
69906;SDS011;57190;47.918;8.112;2023-05-15T10:31:40;2.40;;;1.95;;
69906;SDS011;57190;47.918;8.112;2023-05-15T10:34:07;2.30;;;2.10;;
69906;SDS011;57190;47.918;8.112;2023-05-15T10:36:34;2.10;;;2.00;;
69906;SDS011;57190;47.918;8.112;2023-05-15T10:39:02;2.17;;;2.08;;
69906;SDS011;57190;47.918;8.112;2023-05-15T10:41:32;2.17;;;2.08;;
69906;SDS011;57190;47.918;8.112;2023-05-15T10:44:00;2.58;;;1.73;;
69906;SDS011;57190;47.918;8.112;2023-05-15T10:46:28;2.10;;;2.00;;
69906;SDS011;57190;47.918;8.112;2023-05-15T10:48:56;2.45;;;1.70;;
69906;SDS011;57190;47.918;8.112;2023-05-15T10:51:23;1.92;;;1.83;;
69906;SDS011;57190;47.918;8.112;2023-05-15T10:53:51;2.25;;;2.00;;
69906;SDS011;57190;47.918;8.112;2023-05-15T10:56:18;2.30;;;1.73;;
69906;SDS011;57190;47.918;8.112;2023-05-15T10:58:44;2.00;;;1.90;;
69906;SDS011;57190;47.918;8.112;2023-05-15T11:01:30;2.30;;;2.10;;
69906;SDS011;57190;47.918;8.112;2023-05-15T11:04:10;1.85;;;1.70;;
69906;SDS011;57190;47.918;8.112;2023-05-15T11:06:36;1.88;;;1.77;;
69906;SDS011;57190;47.918;8.112;2023-05-15T11:14:16;2.58;;;2.35;;
69906;SDS011;57190;47.918;8.112;2023-05-15T11:19:23;2.15;;;1.90;;
69906;SDS011;57190;47.918;8.112;2023-05-15T11:21:56;2.05;;;1.95;;
69906;SDS011;57190;47.918;8.112;2023-05-15T11:24:26;1.88;;;1.77;;
69906;SDS011;57190;47.918;8.112;2023-05-15T11:29:25;2.05;;;1.88;;
69906;SDS011;57190;47.918;8.112;2023-05-15T11:31:51;2.25;;;2.15;;
69906;SDS011;57190;47.918;8.112;2023-05-15T11:34:29;1.88;;;1.77;;
69906;SDS011;57190;47.918;8.112;2023-05-15T11:36:56;2.25;;;2.05;;
69906;SDS011;57190;47.918;8.112;2023-05-15T11:39:24;2.25;;;2.15;;
69906;SDS011;57190;47.918;8.112;2023-05-15T11:41:50;2.67;;;2.47;;
69906;SDS011;57190;47.918;8.112;2023-05-15T11:44:22;2.13;;;2.03;;
69906;SDS011;57190;47.918;8.112;2023-05-15T11:46:49;2.13;;;2.00;;
69906;SDS011;57190;47.918;8.112;2023-05-15T11:49:18;1.85;;;1.75;;
69906;SDS011;57190;47.918;8.112;2023-05-15T11:51:45;1.95;;;1.85;;
69906;SDS011;57190;47.918;8.112;2023-05-15T11:54:13;2.70;;;2.58;;
69906;SDS011;57190;47.918;8.112;2023-05-15T11:56:42;2.20;;;2.10;;
69906;SDS011;57190;47.918;8.112;2023-05-15T11:59:11;2.95;;;2.22;;
69906;SDS011;57190;47.918;8.112;2023-05-15T12:01:39;2.47;;;2.28;;
69906;SDS011;57190;47.918;8.112;2023-05-15T12:04:15;2.13;;;2.03;;
69906;SDS011;57190;47.918;8.112;2023-05-15T12:06:42;2.38;;;2.25;;
69906;SDS011;57190;47.918;8.112;2023-05-15T12:09:15;2.13;;;2.03;;
69906;SDS011;57190;47.918;8.112;2023-05-15T12:11:52;2.33;;;1.90;;
69906;SDS011;57190;47.918;8.112;2023-05-15T12:14:27;1.70;;;1.60;;
69906;SDS011;57190;47.918;8.112;2023-05-15T12:16:53;2.47;;;1.73;;
69906;SDS011;57190;47.918;8.112;2023-05-15T12:19:28;2.10;;;2.00;;
69906;SDS011;57190;47.918;8.112;2023-05-15T12:21:54;1.83;;;1.73;;
69906;SDS011;57190;47.918;8.112;2023-05-15T12:24:20;1.75;;;1.65;;
69906;SDS011;57190;47.918;8.112;2023-05-15T12:26:45;1.95;;;1.85;;
69906;SDS011;57190;47.918;8.112;2023-05-15T12:29:12;2.65;;;1.85;;
69906;SDS011;57190;47.918;8.112;2023-05-15T12:31:38;2.08;;;1.60;;
69906;SDS011;57190;47.918;8.112;2023-05-15T12:34:03;1.98;;;1.88;;
69906;SDS011;57190;47.918;8.112;2023-05-15T12:36:29;2.00;;;1.90;;
69906;SDS011;57190;47.918;8.112;2023-05-15T12:38:56;1.95;;;1.85;;
69906;SDS011;57190;47.918;8.112;2023-05-15T12:41:25;1.90;;;1.80;;
69906;SDS011;57190;47.918;8.112;2023-05-15T12:43:54;2.40;;;1.77;;
69906;SDS011;57190;47.918;8.112;2023-05-15T12:46:28;2.00;;;1.90;;
69906;SDS011;57190;47.918;8.112;2023-05-15T12:48:58;1.80;;;1.70;;
69906;SDS011;57190;47.918;8.112;2023-05-15T12:51:24;1.95;;;1.80;;
69906;SDS011;57190;47.918;8.112;2023-05-15T12:53:53;1.50;;;1.40;;
69906;SDS011;57190;47.918;8.112;2023-05-15T12:56:21;1.20;;;1.20;;
69906;SDS011;57190;47.918;8.112;2023-05-15T12:58:47;1.58;;;1.48;;
69906;SDS011;57190;47.918;8.112;2023-05-15T13:01:13;1.70;;;1.60;;
69906;SDS011;57190;47.918;8.112;2023-05-15T13:03:41;2.17;;;1.30;;
69906;SDS011;57190;47.918;8.112;2023-05-15T13:06:08;1.77;;;1.30;;
69906;SDS011;57190;47.918;8.112;2023-05-15T13:08:37;1.33;;;1.10;;
69906;SDS011;57190;47.918;8.112;2023-05-15T13:11:05;1.50;;;1.40;;
69906;SDS011;57190;47.918;8.112;2023-05-15T13:13:42;1.20;;;1.20;;
69906;SDS011;57190;47.918;8.112;2023-05-15T13:16:19;1.15;;;1.15;;
69906;SDS011;57190;47.918;8.112;2023-05-15T13:18:50;1.10;;;1.10;;
69906;SDS011;57190;47.918;8.112;2023-05-15T13:21:16;1.58;;;1.48;;
69906;SDS011;57190;47.918;8.112;2023-05-15T13:23:42;1.38;;;1.33;;
69906;SDS011;57190;47.918;8.112;2023-05-15T13:26:08;1.35;;;1.35;;
69906;SDS011;57190;47.918;8.112;2023-05-15T13:28:34;2.10;;;1.30;;
69906;SDS011;57190;47.918;8.112;2023-05-15T13:31:00;1.27;;;1.17;;
69906;SDS011;57190;47.918;8.112;2023-05-15T13:33:25;1.67;;;1.42;;
69906;SDS011;57190;47.918;8.112;2023-05-15T13:35:51;1.95;;;1.80;;
69906;SDS011;57190;47.918;8.112;2023-05-15T13:38:17;1.73;;;1.63;;
69906;SDS011;57190;47.918;8.112;2023-05-15T13:40:43;2.08;;;1.70;;
69906;SDS011;57190;47.918;8.112;2023-05-15T13:43:08;1.88;;;1.77;;
69906;SDS011;57190;47.918;8.112;2023-05-15T13:45:34;2.47;;;1.70;;
69906;SDS011;57190;47.918;8.112;2023-05-15T13:47:59;1.70;;;1.60;;
69906;SDS011;57190;47.918;8.112;2023-05-15T13:50:25;1.80;;;1.70;;
69906;SDS011;57190;47.918;8.112;2023-05-15T13:52:51;1.70;;;1.60;;
69906;SDS011;57190;47.918;8.112;2023-05-15T13:55:18;1.73;;;1.63;;
69906;SDS011;57190;47.918;8.112;2023-05-15T13:57:43;1.50;;;1.40;;
69906;SDS011;57190;47.918;8.112;2023-05-15T14:00:10;1.75;;;1.65;;
69906;SDS011;57190;47.918;8.112;2023-05-15T14:02:40;2.03;;;1.67;;
69906;SDS011;57190;47.918;8.112;2023-05-15T14:05:07;1.40;;;1.30;;
69906;SDS011;57190;47.918;8.112;2023-05-15T14:07:35;1.55;;;1.50;;
69906;SDS011;57190;47.918;8.112;2023-05-15T14:10:00;1.60;;;1.50;;
69906;SDS011;57190;47.918;8.112;2023-05-15T14:12:26;1.63;;;1.52;;
69906;SDS011;57190;47.918;8.112;2023-05-15T14:14:52;1.80;;;1.70;;
69906;SDS011;57190;47.918;8.112;2023-05-15T14:17:17;1.85;;;1.75;;
69906;SDS011;57190;47.918;8.112;2023-05-15T14:19:43;1.95;;;1.52;;
69906;SDS011;57190;47.918;8.112;2023-05-15T14:22:09;1.80;;;1.70;;
69906;SDS011;57190;47.918;8.112;2023-05-15T14:24:34;1.92;;;1.83;;
69906;SDS011;57190;47.918;8.112;2023-05-15T14:27:00;1.60;;;1.50;;
69906;SDS011;57190;47.918;8.112;2023-05-15T14:29:26;1.80;;;1.70;;
69906;SDS011;57190;47.918;8.112;2023-05-15T14:31:51;1.70;;;1.60;;
69906;SDS011;57190;47.918;8.112;2023-05-15T14:34:17;1.88;;;1.70;;
69906;SDS011;57190;47.918;8.112;2023-05-15T14:36:43;1.77;;;1.67;;
69906;SDS011;57190;47.918;8.112;2023-05-15T14:39:13;1.67;;;1.58;;
69906;SDS011;57190;47.918;8.112;2023-05-15T14:41:39;1.80;;;1.70;;
69906;SDS011;57190;47.918;8.112;2023-05-15T14:44:05;1.88;;;1.77;;
69906;SDS011;57190;47.918;8.112;2023-05-15T14:46:30;1.60;;;1.50;;
69906;SDS011;57190;47.918;8.112;2023-05-15T14:48:56;1.85;;;1.75;;
69906;SDS011;57190;47.918;8.112;2023-05-15T14:51:22;1.90;;;1.80;;
69906;SDS011;57190;47.918;8.112;2023-05-15T14:53:47;1.98;;;1.88;;
69906;SDS011;57190;47.918;8.112;2023-05-15T14:56:14;2.75;;;2.55;;
69906;SDS011;57190;47.918;8.112;2023-05-15T14:58:39;3.33;;;3.03;;
69906;SDS011;57190;47.918;8.112;2023-05-15T15:01:05;1.80;;;1.70;;
69906;SDS011;57190;47.918;8.112;2023-05-15T15:03:30;3.17;;;2.13;;
69906;SDS011;57190;47.918;8.112;2023-05-15T15:05:56;2.10;;;1.90;;
69906;SDS011;57190;47.918;8.112;2023-05-15T15:08:22;4.43;;;3.95;;
69906;SDS011;57190;47.918;8.112;2023-05-15T15:10:48;2.42;;;1.90;;
69906;SDS011;57190;47.918;8.112;2023-05-15T15:13:14;2.20;;;2.00;;
69906;SDS011;57190;47.918;8.112;2023-05-15T15:15:40;2.33;;;2.13;;
69906;SDS011;57190;47.918;8.112;2023-05-15T15:18:06;2.70;;;2.10;;
69906;SDS011;57190;47.918;8.112;2023-05-15T15:20:31;2.00;;;1.90;;
69906;SDS011;57190;47.918;8.112;2023-05-15T15:22:57;2.70;;;2.50;;
69906;SDS011;57190;47.918;8.112;2023-05-15T15:25:23;2.30;;;2.20;;
69906;SDS011;57190;47.918;8.112;2023-05-15T15:27:49;2.17;;;2.05;;
69906;SDS011;57190;47.918;8.112;2023-05-15T15:30:15;2.63;;;2.33;;
69906;SDS011;57190;47.918;8.112;2023-05-15T15:32:41;2.00;;;1.90;;
69906;SDS011;57190;47.918;8.112;2023-05-15T15:35:09;2.00;;;1.90;;
69906;SDS011;57190;47.918;8.112;2023-05-15T15:40:59;2.80;;;2.60;;
69906;SDS011;57190;47.918;8.112;2023-05-15T15:43:27;3.15;;;2.85;;